Marie — WDF2361 — position and weather

sailwx.info

Track history (hours):
 
Tides and Currents Weather Stations Pressure Air Temp Water Temp Dewpoint Dewpoint Depression Visibility Wind Speed Wind Dir Waves Ship Positions

Marie

Owner: Enterprise Marine Services, LLC, San Antonio, TX. More information available from US FCC via Universal Licensing System and Coast Guard Vessel Documentation Center.

Last reported at 2018-Feb-19 08:19 UTC. Time now 2018-Feb-19 20:21 UTC.
Position N 29°44' W 095°01'.

Length 24 m; draft 2.9 m.

Type: Tug. MMSI: 367078350.

Date/timePositionNaut miles runAvg speedWind from/ knotsBaromVisibWave heightAir tempDewpointWater temp
2018-Feb-19 08:19N 29°44' W 095°01'0 0.0
2018-Feb-18 00:00N 29°44' W 095°01'2 4.7
2018-Feb-17 23:30N 29°42' W 094°60'3 6.2
2018-Feb-17 23:00N 29°39' W 094°58'3 6.0
2018-Feb-17 22:30N 29°36' W 094°57'2 4.7
2018-Feb-17 22:00N 29°34' W 094°55'14 1.1
2018-Feb-17 08:35N 29°27' W 094°41'0 0.0
2018-Feb-17 07:18N 29°27' W 094°41'0 0.0
2018-Feb-17 07:00N 29°27' W 094°41'0 0.0
2018-Feb-17 06:25N 29°27' W 094°41'0 0.0
2018-Feb-17 05:54N 29°27' W 094°41'0 0.0
2018-Feb-17 05:30N 29°27' W 094°41'0 0.0
2018-Feb-17 05:00N 29°27' W 094°41'0 0.0
2018-Feb-17 04:26N 29°27' W 094°41'0 0.0
2018-Feb-17 03:56N 29°27' W 094°41'0 0.0
2018-Feb-17 03:25N 29°27' W 094°41'0 0.0
2018-Feb-17 02:57N 29°27' W 094°41'0 0.0
2018-Feb-17 02:30N 29°27' W 094°41'0 0.0
2018-Feb-17 02:00N 29°27' W 094°41'0 0.0
2018-Feb-17 01:23N 29°27' W 094°41'0 0.0
2018-Feb-17 00:55N 29°27' W 094°41'0 0.0
2018-Feb-17 00:25N 29°27' W 094°41'0 0.0
2018-Feb-16 23:58N 29°27' W 094°41'0 0.0
2018-Feb-16 23:19N 29°27' W 094°41'0 0.0
2018-Feb-16 22:54N 29°27' W 094°41'12 2.6
2018-Feb-16 18:10N 29°32' W 094°29'4 1.7
2018-Feb-16 15:51N 29°34' W 094°25'1 2.3
2018-Feb-16 15:29N 29°35' W 094°25'1 2.1
2018-Feb-16 14:55N 29°36' W 094°24'4 4.9
2018-Feb-16 14:11N 29°37' W 094°20'1 6.2
2018-Feb-16 13:59N 29°38' W 094°19'3 6.1
2018-Feb-16 13:30N 29°39' W 094°16'3 4.7
2018-Feb-16 12:57N 29°40' W 094°13'2 5.4
2018-Feb-16 12:30N 29°41' W 094°10'1 1.4
2018-Feb-16 12:00N 29°41' W 094°10'0 0.0
2018-Feb-16 11:24N 29°41' W 094°10'0 0.0
2018-Feb-16 10:48N 29°41' W 094°10'0 0.0
2018-Feb-16 10:06N 29°41' W 094°10'0 0.0
2018-Feb-16 09:42N 29°41' W 094°10'0 0.0
2018-Feb-16 09:30N 29°41' W 094°10'0 0.0
2018-Feb-16 08:59N 29°41' W 094°10'0 0.0
2018-Feb-16 08:29N 29°41' W 094°10'0 0.0
2018-Feb-16 07:57N 29°41' W 094°10'0 0.0
2018-Feb-16 07:29N 29°41' W 094°10'0 0.0
2018-Feb-16 06:59N 29°41' W 094°10'0 0.0
2018-Feb-16 06:31N 29°41' W 094°10'0 0.0
2018-Feb-16 06:01N 29°41' W 094°10'0 0.0
2018-Feb-16 05:30N 29°41' W 094°10'0 0.0
2018-Feb-16 05:00N 29°41' W 094°10'0 0.0
2018-Feb-16 04:30N 29°41' W 094°10'0 0.0
2018-Feb-16 04:00N 29°41' W 094°10'0 0.0
2018-Feb-16 03:30N 29°41' W 094°10'0 0.0
2018-Feb-16 03:01N 29°41' W 094°10'0 0.0
2018-Feb-16 02:30N 29°41' W 094°10'0 0.0
2018-Feb-16 02:01N 29°41' W 094°10'0 0.0
2018-Feb-16 01:31N 29°41' W 094°10'0 0.0
2018-Feb-16 01:00N 29°41' W 094°10'0 0.0
2018-Feb-16 00:29N 29°41' W 094°10'0 0.1
2018-Feb-16 00:01N 29°41' W 094°10'1 2.6
2018-Feb-15 23:30N 29°42' W 094°08'3 5.5
2018-Feb-15 23:00N 29°44' W 094°06'3 6.7
2018-Feb-15 22:31N 29°46' W 094°03'3 6.6
2018-Feb-15 22:01N 29°48' W 094°00'3 6.4
2018-Feb-15 21:30N 29°50' W 093°57'4 8.1
2018-Feb-15 21:01N 29°53' W 093°55'4 8.4
2018-Feb-15 20:31N 29°57' W 093°52'3 5.5
2018-Feb-15 20:00N 29°59' W 093°54'3 5.7
2018-Feb-15 19:30N 29°60' W 093°57'0 0.0
2018-Feb-15 19:01N 29°60' W 093°57'0 0.2
2018-Feb-15 18:30N 29°60' W 093°57'1 3.0
2018-Feb-15 18:01N 30°01' W 093°58'0 0.7
2018-Feb-15 17:30N 30°00' W 093°59'0 0.0
2018-Feb-15 17:00N 30°00' W 093°59'0 0.0
2018-Feb-15 16:31N 30°00' W 093°59'0 0.0
2018-Feb-15 16:00N 30°00' W 093°59'0 0.0
2018-Feb-15 15:31N 30°00' W 093°59'0 0.0
2018-Feb-15 15:01N 30°00' W 093°59'0 0.1
2018-Feb-15 14:29N 30°01' W 093°59'0 0.0
2018-Feb-15 14:00N 30°01' W 093°59'0 0.0
2018-Feb-15 13:30N 30°01' W 093°59'0 0.0
2018-Feb-15 13:00N 30°01' W 093°59'0 0.0
2018-Feb-15 12:31N 30°01' W 093°59'0 0.0
2018-Feb-15 12:01N 30°01' W 093°59'0 0.0
2018-Feb-15 11:30N 30°01' W 093°59'0 0.0
2018-Feb-15 11:00N 30°01' W 093°59'0 0.0
2018-Feb-15 10:31N 30°01' W 093°59'0 0.0
2018-Feb-15 10:01N 30°01' W 093°59'0 0.0
2018-Feb-15 09:30N 30°01' W 093°59'0 0.0
2018-Feb-15 09:00N 30°01' W 093°59'0 0.0
2018-Feb-15 08:31N 30°01' W 093°59'0 0.0
2018-Feb-15 08:01N 30°01' W 093°59'0 0.0
2018-Feb-15 07:30N 30°01' W 093°59'0 0.0
2018-Feb-15 07:01N 30°01' W 093°59'0 0.0
2018-Feb-15 06:30N 30°01' W 093°59'0 0.0
2018-Feb-15 06:00N 30°01' W 093°59'0 0.0
2018-Feb-15 05:30N 30°01' W 093°59'0 0.0
2018-Feb-15 05:00N 30°01' W 093°59'0 0.0
2018-Feb-15 04:30N 30°01' W 093°59'0 0.0
2018-Feb-15 03:59N 30°01' W 093°59'0 0.0
2018-Feb-15 03:31N 30°01' W 093°59'0 0.0
2018-Feb-15 03:01N 30°01' W 093°59'0 0.0
2018-Feb-15 02:31N 30°01' W 093°59'0 0.0
2018-Feb-15 02:01N 30°01' W 093°59'0 0.0
2018-Feb-15 01:30N 30°01' W 093°59'0 0.0
2018-Feb-15 01:00N 30°01' W 093°59'0 0.0
2018-Feb-15 00:30N 30°01' W 093°59'0 0.0
2018-Feb-15 00:00N 30°01' W 093°59'0 0.0
2018-Feb-14 23:30N 30°01' W 093°59'0 0.1
2018-Feb-14 23:00N 30°01' W 093°59'1 3.0
2018-Feb-14 22:30N 29°60' W 093°57'2 3.3
2018-Feb-14 22:01N 29°60' W 093°55'1 2.6
2018-Feb-14 21:31N 29°59' W 093°54'2 4.2
2018-Feb-14 21:00N 29°58' W 093°52'0 0.0
2018-Feb-14 20:31N 29°58' W 093°52'0 0.0
2018-Feb-14 20:00N 29°58' W 093°52'0 0.0
2018-Feb-14 19:31N 29°58' W 093°52'0 0.0
2018-Feb-14 19:00N 29°58' W 093°52'0 0.0
2018-Feb-14 18:30N 29°58' W 093°52'0 0.0
2018-Feb-14 18:00N 29°58' W 093°52'2 4.4
2018-Feb-14 17:31N 29°59' W 093°54'1 2.4
2018-Feb-14 17:01N 29°60' W 093°55'0 0.0
2018-Feb-14 16:30N 29°60' W 093°55'0 0.0
2018-Feb-14 16:00N 29°60' W 093°55'0 0.0
2018-Feb-14 15:31N 29°60' W 093°55'0 0.0
2018-Feb-14 15:01N 29°60' W 093°55'0 0.0
2018-Feb-14 14:31N 29°60' W 093°55'0 0.0
2018-Feb-14 14:01N 29°60' W 093°55'0 0.0
2018-Feb-14 13:30N 29°60' W 093°55'0 0.0
2018-Feb-14 13:01N 29°60' W 093°55'0 0.0
2018-Feb-14 12:31N 29°60' W 093°55'0 0.0
2018-Feb-14 12:00N 29°60' W 093°55'0 0.0
2018-Feb-14 11:30N 29°60' W 093°55'0 0.0
2018-Feb-14 11:00N 29°60' W 093°55'0 0.0
2018-Feb-14 10:31N 29°60' W 093°55'0 0.0
2018-Feb-14 10:01N 29°60' W 093°55'0 0.0
2018-Feb-14 09:29N 29°60' W 093°55'0 0.0
2018-Feb-14 09:00N 29°60' W 093°55'0 0.0
2018-Feb-14 08:30N 29°60' W 093°55'0 0.0
2018-Feb-14 08:01N 29°60' W 093°55'0 0.0
2018-Feb-14 07:30N 29°60' W 093°55'0 0.0
2018-Feb-14 07:00N 29°60' W 093°55'0 0.0
2018-Feb-14 06:30N 29°60' W 093°55'0 0.0
2018-Feb-14 06:01N 29°60' W 093°55'0 0.0
2018-Feb-14 05:30N 29°60' W 093°55'0 0.0
2018-Feb-14 05:00N 29°60' W 093°55'0 0.0
2018-Feb-14 04:30N 29°60' W 093°55'0 0.0
2018-Feb-14 04:00N 29°60' W 093°55'0 0.0
2018-Feb-14 03:30N 29°60' W 093°55'0 0.0
2018-Feb-14 03:00N 29°60' W 093°55'0 0.0
2018-Feb-14 02:31N 29°60' W 093°55'0 0.0
2018-Feb-14 02:01N 29°60' W 093°55'0 0.0
2018-Feb-14 01:31N 29°60' W 093°55'0 0.0
2018-Feb-14 01:01N 29°60' W 093°55'0 0.0
2018-Feb-14 00:30N 29°60' W 093°55'0 0.0
2018-Feb-14 00:00N 29°60' W 093°55'0 0.0
2018-Feb-13 23:31N 29°60' W 093°55'0 0.0
2018-Feb-13 23:01N 29°60' W 093°55'0 0.0
2018-Feb-13 22:30N 29°60' W 093°55'0 0.0
2018-Feb-13 22:00N 29°60' W 093°55'0 0.0
2018-Feb-13 21:30N 29°60' W 093°55'0 0.0
2018-Feb-13 21:01N 29°60' W 093°55'0 0.0
2018-Feb-13 20:30N 29°60' W 093°55'0 0.0
2018-Feb-13 20:00N 29°60' W 093°55'0 0.0
2018-Feb-13 19:31N 29°60' W 093°55'0 0.0
2018-Feb-13 19:00N 29°60' W 093°55'0 0.0
2018-Feb-13 18:31N 29°60' W 093°55'0 0.0
2018-Feb-13 18:01N 29°60' W 093°55'0 0.0
2018-Feb-13 17:30N 29°60' W 093°55'0 0.0
2018-Feb-13 17:00N 29°60' W 093°55'0 0.0
2018-Feb-13 16:31N 29°60' W 093°55'0 0.0
2018-Feb-13 16:01N 29°60' W 093°55'0 0.0
2018-Feb-13 15:31N 29°60' W 093°55'0 0.0
2018-Feb-13 15:00N 29°60' W 093°55'0 0.0
2018-Feb-13 14:30N 29°60' W 093°55'0 0.0
2018-Feb-13 14:01N 29°60' W 093°55'0 0.0
2018-Feb-13 13:31N 29°60' W 093°55'0 0.0
2018-Feb-13 13:01N 29°60' W 093°55'0 0.0
2018-Feb-13 12:31N 29°60' W 093°55'0 0.0
2018-Feb-13 12:00N 29°60' W 093°55'0 0.0
2018-Feb-13 11:31N 29°60' W 093°55'0 0.0
2018-Feb-13 11:00N 29°60' W 093°55'0 0.0
2018-Feb-13 10:30N 29°60' W 093°55'0 0.0
2018-Feb-13 10:00N 29°60' W 093°55'0 0.0
2018-Feb-13 09:30N 29°60' W 093°55'0 0.0
2018-Feb-13 09:00N 29°60' W 093°55'0 0.0
2018-Feb-13 08:30N 29°60' W 093°55'0 0.0
2018-Feb-13 08:00N 29°60' W 093°55'0 0.0
2018-Feb-13 07:30N 29°60' W 093°55'0 0.0
2018-Feb-13 07:01N 29°60' W 093°55'0 0.0
2018-Feb-13 06:31N 29°60' W 093°55'0 0.0
2018-Feb-13 06:00N 29°60' W 093°55'0 0.0
2018-Feb-13 05:31N 29°60' W 093°55'0 0.0
2018-Feb-13 05:00N 29°60' W 093°55'0 0.0
2018-Feb-13 04:31N 29°60' W 093°55'0 0.0
2018-Feb-13 04:01N 29°60' W 093°55'0 0.0
2018-Feb-13 03:31N 29°60' W 093°55'0 0.0
2018-Feb-13 03:01N 29°60' W 093°55'0 0.0
2018-Feb-13 02:31N 29°60' W 093°55'0 0.0
2018-Feb-13 02:01N 29°60' W 093°55'0 0.0
2018-Feb-13 01:30N 29°60' W 093°55'0 0.0
2018-Feb-13 01:01N 29°60' W 093°55'0 0.0
2018-Feb-13 00:31N 29°60' W 093°55'0 0.0
2018-Feb-13 00:01N 29°60' W 093°55'0 0.0
2018-Feb-12 23:30N 29°60' W 093°55'0 0.0
2018-Feb-12 23:01N 29°60' W 093°55'0 0.0
2018-Feb-12 22:31N 29°60' W 093°55'0 0.0
2018-Feb-12 22:00N 29°60' W 093°55'0 0.0
2018-Feb-12 21:31N 29°60' W 093°55'0 0.0
2018-Feb-12 21:00N 29°60' W 093°55'0 0.0
2018-Feb-12 20:30N 29°60' W 093°55'0 0.1
2018-Feb-12 20:00N 29°60' W 093°55'3 5.7
2018-Feb-12 19:30N 29°59' W 093°52'1 1.2
2018-Feb-12 19:00N 29°58' W 093°52'0 0.0
2018-Feb-12 18:31N 29°58' W 093°52'0 0.0
2018-Feb-12 18:00N 29°58' W 093°52'0 0.0
2018-Feb-12 17:27N 29°58' W 093°52'0 0.0
2018-Feb-12 17:01N 29°58' W 093°52'0 0.0
2018-Feb-12 16:30N 29°58' W 093°52'1 1.7
2018-Feb-12 16:00N 29°59' W 093°52'3 5.1
2018-Feb-12 15:31N 29°60' W 093°55'0 0.0
2018-Feb-12 15:00N 29°60' W 093°55'0 0.0
2018-Feb-12 14:31N 29°60' W 093°55'0 0.0
2018-Feb-12 14:00N 29°60' W 093°55'0 0.0
2018-Feb-12 13:30N 29°60' W 093°55'0 0.0
2018-Feb-12 13:01N 29°60' W 093°55'0 0.0
2018-Feb-12 12:30N 29°60' W 093°55'0 0.0
2018-Feb-12 12:01N 29°60' W 093°55'0 0.0
2018-Feb-12 11:30N 29°60' W 093°55'0 0.0
2018-Feb-12 11:00N 29°60' W 093°55'0 0.0
2018-Feb-12 10:30N 29°60' W 093°55'0 0.0
2018-Feb-12 10:00N 29°60' W 093°55'0 0.0
2018-Feb-12 09:30N 29°60' W 093°55'0 0.0
2018-Feb-12 09:00N 29°60' W 093°55'0 0.0
2018-Feb-12 08:31N 29°60' W 093°55'0 0.0
2018-Feb-12 08:00N 29°60' W 093°55'0 0.0
2018-Feb-12 07:30N 29°60' W 093°55'0 0.0
2018-Feb-12 07:00N 29°60' W 093°55'0 0.0
2018-Feb-12 06:30N 29°60' W 093°55'0 0.0
2018-Feb-12 06:01N 29°60' W 093°55'0 0.0
2018-Feb-12 05:30N 29°60' W 093°55'0 0.0
2018-Feb-12 05:00N 29°60' W 093°55'0 0.0
2018-Feb-12 04:30N 29°60' W 093°55'0 0.0
2018-Feb-12 04:01N 29°60' W 093°55'0 0.0
2018-Feb-12 03:30N 29°60' W 093°55'0 0.0
2018-Feb-12 03:00N 29°60' W 093°55'0 0.0
2018-Feb-12 02:30N 29°60' W 093°55'0 0.0
2018-Feb-12 02:01N 29°60' W 093°55'0 0.0
2018-Feb-12 01:30N 29°60' W 093°55'0 0.0
2018-Feb-12 01:01N 29°60' W 093°55'0 0.0
2018-Feb-12 00:30N 29°60' W 093°55'0 0.0
2018-Feb-12 00:00N 29°60' W 093°55'0 0.0
2018-Feb-11 23:30N 29°60' W 093°55'0 0.0
2018-Feb-11 23:01N 29°60' W 093°55'0 0.0
2018-Feb-11 22:31N 29°60' W 093°55'0 0.1
2018-Feb-11 22:01N 29°60' W 093°55'0 0.6
2018-Feb-11 21:30N 29°60' W 093°55'0 0.2
2018-Feb-11 21:01N 29°59' W 093°54'2 3.7
2018-Feb-11 20:26N 29°59' W 093°52'2 5.2
2018-Feb-11 20:00N 29°57' W 093°52'3 6.7
2018-Feb-11 19:31N 29°54' W 093°54'3 6.5
2018-Feb-11 19:00N 29°51' W 093°56'3 5.2
2018-Feb-11 18:30N 29°49' W 093°58'2 4.2
2018-Feb-11 18:00N 29°48' W 094°00'2 4.6
2018-Feb-11 17:30N 29°46' W 094°02'2 4.6
2018-Feb-11 17:01N 29°45' W 094°04'2 4.7
2018-Feb-11 16:30N 29°44' W 094°06'2 4.7
2018-Feb-11 16:00N 29°42' W 094°09'2 4.1
2018-Feb-11 15:30N 29°41' W 094°11'2 4.2
2018-Feb-11 15:00N 29°40' W 094°13'2 3.2
2018-Feb-11 14:28N 29°40' W 094°15'1 1.1
2018-Feb-11 13:59N 29°39' W 094°15'0 0.0
2018-Feb-11 13:25N 29°39' W 094°15'0 0.0
2018-Feb-11 13:00N 29°39' W 094°15'0 0.0
2018-Feb-11 12:30N 29°39' W 094°15'0 0.0
2018-Feb-11 12:00N 29°39' W 094°15'0 0.0
2018-Feb-11 11:30N 29°39' W 094°15'0 0.0
2018-Feb-11 11:00N 29°39' W 094°15'0 0.0
2018-Feb-11 10:30N 29°39' W 094°15'0 0.0
2018-Feb-11 10:00N 29°39' W 094°15'0 0.0
2018-Feb-11 09:30N 29°39' W 094°15'0 0.0
2018-Feb-11 09:00N 29°39' W 094°15'0 0.0
2018-Feb-11 08:30N 29°39' W 094°15'1 1.6
2018-Feb-11 08:00N 29°39' W 094°16'3 2.2
2018-Feb-11 06:46N 29°38' W 094°19'0 0.0
2018-Feb-11 06:26N 29°38' W 094°19'0 0.0
2018-Feb-11 06:00N 29°38' W 094°19'10 2.5
2018-Feb-11 01:56N 29°32' W 094°29'  
Track history (hours):
 
Tides and Currents Weather Stations Pressure Air Temp Water Temp Dewpoint Dewpoint Depression Visibility Wind Speed Wind Dir Waves Ship Positions

Marie

Owner: Enterprise Marine Services, LLC, San Antonio, TX. More information available from US FCC via Universal Licensing System and Coast Guard Vessel Documentation Center.

Last reported at 2018-Feb-19 08:19 UTC. Time now 2018-Feb-19 20:21 UTC.
Position N 29°44' W 095°01'.

Length 24 m; draft 2.9 m.

Type: Tug. MMSI: 367078350.

Date/timePositionNaut miles runAvg speedWind from/ knotsBaromVisibWave heightAir tempDewpointWater temp
2018-Feb-19 08:19N 29°44' W 095°01'0 0.0
2018-Feb-18 00:00N 29°44' W 095°01'2 4.7
2018-Feb-17 23:30N 29°42' W 094°60'3 6.2
2018-Feb-17 23:00N 29°39' W 094°58'3 6.0
2018-Feb-17 22:30N 29°36' W 094°57'2 4.7
2018-Feb-17 22:00N 29°34' W 094°55'14 1.1
2018-Feb-17 08:35N 29°27' W 094°41'0 0.0
2018-Feb-17 07:18N 29°27' W 094°41'0 0.0
2018-Feb-17 07:00N 29°27' W 094°41'0 0.0
2018-Feb-17 06:25N 29°27' W 094°41'0 0.0
2018-Feb-17 05:54N 29°27' W 094°41'0 0.0
2018-Feb-17 05:30N 29°27' W 094°41'0 0.0
2018-Feb-17 05:00N 29°27' W 094°41'0 0.0
2018-Feb-17 04:26N 29°27' W 094°41'0 0.0
2018-Feb-17 03:56N 29°27' W 094°41'0 0.0
2018-Feb-17 03:25N 29°27' W 094°41'0 0.0
2018-Feb-17 02:57N 29°27' W 094°41'0 0.0
2018-Feb-17 02:30N 29°27' W 094°41'0 0.0
2018-Feb-17 02:00N 29°27' W 094°41'0 0.0
2018-Feb-17 01:23N 29°27' W 094°41'0 0.0
2018-Feb-17 00:55N 29°27' W 094°41'0 0.0
2018-Feb-17 00:25N 29°27' W 094°41'0 0.0
2018-Feb-16 23:58N 29°27' W 094°41'0 0.0
2018-Feb-16 23:19N 29°27' W 094°41'0 0.0
2018-Feb-16 22:54N 29°27' W 094°41'12 2.6
2018-Feb-16 18:10N 29°32' W 094°29'4 1.7
2018-Feb-16 15:51N 29°34' W 094°25'1 2.3
2018-Feb-16 15:29N 29°35' W 094°25'1 2.1
2018-Feb-16 14:55N 29°36' W 094°24'4 4.9
2018-Feb-16 14:11N 29°37' W 094°20'1 6.2
2018-Feb-16 13:59N 29°38' W 094°19'3 6.1
2018-Feb-16 13:30N 29°39' W 094°16'3 4.7
2018-Feb-16 12:57N 29°40' W 094°13'2 5.4
2018-Feb-16 12:30N 29°41' W 094°10'1 1.4
2018-Feb-16 12:00N 29°41' W 094°10'0 0.0
2018-Feb-16 11:24N 29°41' W 094°10'0 0.0
2018-Feb-16 10:48N 29°41' W 094°10'0 0.0
2018-Feb-16 10:06N 29°41' W 094°10'0 0.0
2018-Feb-16 09:42N 29°41' W 094°10'0 0.0
2018-Feb-16 09:30N 29°41' W 094°10'0 0.0
2018-Feb-16 08:59N 29°41' W 094°10'0 0.0
2018-Feb-16 08:29N 29°41' W 094°10'0 0.0
2018-Feb-16 07:57N 29°41' W 094°10'0 0.0
2018-Feb-16 07:29N 29°41' W 094°10'0 0.0
2018-Feb-16 06:59N 29°41' W 094°10'0 0.0
2018-Feb-16 06:31N 29°41' W 094°10'0 0.0
2018-Feb-16 06:01N 29°41' W 094°10'0 0.0
2018-Feb-16 05:30N 29°41' W 094°10'0 0.0
2018-Feb-16 05:00N 29°41' W 094°10'0 0.0
2018-Feb-16 04:30N 29°41' W 094°10'0 0.0
2018-Feb-16 04:00N 29°41' W 094°10'0 0.0
2018-Feb-16 03:30N 29°41' W 094°10'0 0.0
2018-Feb-16 03:01N 29°41' W 094°10'0 0.0
2018-Feb-16 02:30N 29°41' W 094°10'0 0.0
2018-Feb-16 02:01N 29°41' W 094°10'0 0.0
2018-Feb-16 01:31N 29°41' W 094°10'0 0.0
2018-Feb-16 01:00N 29°41' W 094°10'0 0.0
2018-Feb-16 00:29N 29°41' W 094°10'0 0.1
2018-Feb-16 00:01N 29°41' W 094°10'1 2.6
2018-Feb-15 23:30N 29°42' W 094°08'3 5.5
2018-Feb-15 23:00N 29°44' W 094°06'3 6.7
2018-Feb-15 22:31N 29°46' W 094°03'3 6.6
2018-Feb-15 22:01N 29°48' W 094°00'3 6.4
2018-Feb-15 21:30N 29°50' W 093°57'4 8.1
2018-Feb-15 21:01N 29°53' W 093°55'4 8.4
2018-Feb-15 20:31N 29°57' W 093°52'3 5.5
2018-Feb-15 20:00N 29°59' W 093°54'3 5.7
2018-Feb-15 19:30N 29°60' W 093°57'0 0.0
2018-Feb-15 19:01N 29°60' W 093°57'0 0.2
2018-Feb-15 18:30N 29°60' W 093°57'1 3.0
2018-Feb-15 18:01N 30°01' W 093°58'0 0.7
2018-Feb-15 17:30N 30°00' W 093°59'0 0.0
2018-Feb-15 17:00N 30°00' W 093°59'0 0.0
2018-Feb-15 16:31N 30°00' W 093°59'0 0.0
2018-Feb-15 16:00N 30°00' W 093°59'0 0.0
2018-Feb-15 15:31N 30°00' W 093°59'0 0.0
2018-Feb-15 15:01N 30°00' W 093°59'0 0.1
2018-Feb-15 14:29N 30°01' W 093°59'0 0.0
2018-Feb-15 14:00N 30°01' W 093°59'0 0.0
2018-Feb-15 13:30N 30°01' W 093°59'0 0.0
2018-Feb-15 13:00N 30°01' W 093°59'0 0.0
2018-Feb-15 12:31N 30°01' W 093°59'0 0.0
2018-Feb-15 12:01N 30°01' W 093°59'0 0.0
2018-Feb-15 11:30N 30°01' W 093°59'0 0.0
2018-Feb-15 11:00N 30°01' W 093°59'0 0.0
2018-Feb-15 10:31N 30°01' W 093°59'0 0.0
2018-Feb-15 10:01N 30°01' W 093°59'0 0.0
2018-Feb-15 09:30N 30°01' W 093°59'0 0.0
2018-Feb-15 09:00N 30°01' W 093°59'0 0.0
2018-Feb-15 08:31N 30°01' W 093°59'0 0.0
2018-Feb-15 08:01N 30°01' W 093°59'0 0.0
2018-Feb-15 07:30N 30°01' W 093°59'0 0.0
2018-Feb-15 07:01N 30°01' W 093°59'0 0.0
2018-Feb-15 06:30N 30°01' W 093°59'0 0.0
2018-Feb-15 06:00N 30°01' W 093°59'0 0.0
2018-Feb-15 05:30N 30°01' W 093°59'0 0.0
2018-Feb-15 05:00N 30°01' W 093°59'0 0.0
2018-Feb-15 04:30N 30°01' W 093°59'0 0.0
2018-Feb-15 03:59N 30°01' W 093°59'0 0.0
2018-Feb-15 03:31N 30°01' W 093°59'0 0.0
2018-Feb-15 03:01N 30°01' W 093°59'0 0.0
2018-Feb-15 02:31N 30°01' W 093°59'0 0.0
2018-Feb-15 02:01N 30°01' W 093°59'0 0.0
2018-Feb-15 01:30N 30°01' W 093°59'0 0.0
2018-Feb-15 01:00N 30°01' W 093°59'0 0.0
2018-Feb-15 00:30N 30°01' W 093°59'0 0.0
2018-Feb-15 00:00N 30°01' W 093°59'0 0.0
2018-Feb-14 23:30N 30°01' W 093°59'0 0.1
2018-Feb-14 23:00N 30°01' W 093°59'1 3.0
2018-Feb-14 22:30N 29°60' W 093°57'2 3.3
2018-Feb-14 22:01N 29°60' W 093°55'1 2.6
2018-Feb-14 21:31N 29°59' W 093°54'2 4.2
2018-Feb-14 21:00N 29°58' W 093°52'0 0.0
2018-Feb-14 20:31N 29°58' W 093°52'0 0.0
2018-Feb-14 20:00N 29°58' W 093°52'0 0.0
2018-Feb-14 19:31N 29°58' W 093°52'0 0.0
2018-Feb-14 19:00N 29°58' W 093°52'0 0.0
2018-Feb-14 18:30N 29°58' W 093°52'0 0.0
2018-Feb-14 18:00N 29°58' W 093°52'2 4.4
2018-Feb-14 17:31N 29°59' W 093°54'1 2.4
2018-Feb-14 17:01N 29°60' W 093°55'0 0.0
2018-Feb-14 16:30N 29°60' W 093°55'0 0.0
2018-Feb-14 16:00N 29°60' W 093°55'0 0.0
2018-Feb-14 15:31N 29°60' W 093°55'0 0.0
2018-Feb-14 15:01N 29°60' W 093°55'0 0.0
2018-Feb-14 14:31N 29°60' W 093°55'0 0.0
2018-Feb-14 14:01N 29°60' W 093°55'0 0.0
2018-Feb-14 13:30N 29°60' W 093°55'0 0.0
2018-Feb-14 13:01N 29°60' W 093°55'0 0.0
2018-Feb-14 12:31N 29°60' W 093°55'0 0.0
2018-Feb-14 12:00N 29°60' W 093°55'0 0.0
2018-Feb-14 11:30N 29°60' W 093°55'0 0.0
2018-Feb-14 11:00N 29°60' W 093°55'0 0.0
2018-Feb-14 10:31N 29°60' W 093°55'0 0.0
2018-Feb-14 10:01N 29°60' W 093°55'0 0.0
2018-Feb-14 09:29N 29°60' W 093°55'0 0.0
2018-Feb-14 09:00N 29°60' W 093°55'0 0.0
2018-Feb-14 08:30N 29°60' W 093°55'0 0.0
2018-Feb-14 08:01N 29°60' W 093°55'0 0.0
2018-Feb-14 07:30N 29°60' W 093°55'0 0.0
2018-Feb-14 07:00N 29°60' W 093°55'0 0.0
2018-Feb-14 06:30N 29°60' W 093°55'0 0.0
2018-Feb-14 06:01N 29°60' W 093°55'0 0.0
2018-Feb-14 05:30N 29°60' W 093°55'0 0.0
2018-Feb-14 05:00N 29°60' W 093°55'0 0.0
2018-Feb-14 04:30N 29°60' W 093°55'0 0.0
2018-Feb-14 04:00N 29°60' W 093°55'0 0.0
2018-Feb-14 03:30N 29°60' W 093°55'0 0.0
2018-Feb-14 03:00N 29°60' W 093°55'0 0.0
2018-Feb-14 02:31N 29°60' W 093°55'0 0.0
2018-Feb-14 02:01N 29°60' W 093°55'0 0.0
2018-Feb-14 01:31N 29°60' W 093°55'0 0.0
2018-Feb-14 01:01N 29°60' W 093°55'0 0.0
2018-Feb-14 00:30N 29°60' W 093°55'0 0.0
2018-Feb-14 00:00N 29°60' W 093°55'0 0.0
2018-Feb-13 23:31N 29°60' W 093°55'0 0.0
2018-Feb-13 23:01N 29°60' W 093°55'0 0.0
2018-Feb-13 22:30N 29°60' W 093°55'0 0.0
2018-Feb-13 22:00N 29°60' W 093°55'0 0.0
2018-Feb-13 21:30N 29°60' W 093°55'0 0.0
2018-Feb-13 21:01N 29°60' W 093°55'0 0.0
2018-Feb-13 20:30N 29°60' W 093°55'0 0.0
2018-Feb-13 20:00N 29°60' W 093°55'0 0.0
2018-Feb-13 19:31N 29°60' W 093°55'0 0.0
2018-Feb-13 19:00N 29°60' W 093°55'0 0.0
2018-Feb-13 18:31N 29°60' W 093°55'0 0.0
2018-Feb-13 18:01N 29°60' W 093°55'0 0.0
2018-Feb-13 17:30N 29°60' W 093°55'0 0.0
2018-Feb-13 17:00N 29°60' W 093°55'0 0.0
2018-Feb-13 16:31N 29°60' W 093°55'0 0.0
2018-Feb-13 16:01N 29°60' W 093°55'0 0.0
2018-Feb-13 15:31N 29°60' W 093°55'0 0.0
2018-Feb-13 15:00N 29°60' W 093°55'0 0.0
2018-Feb-13 14:30N 29°60' W 093°55'0 0.0
2018-Feb-13 14:01N 29°60' W 093°55'0 0.0
2018-Feb-13 13:31N 29°60' W 093°55'0 0.0
2018-Feb-13 13:01N 29°60' W 093°55'0 0.0
2018-Feb-13 12:31N 29°60' W 093°55'0 0.0
2018-Feb-13 12:00N 29°60' W 093°55'0 0.0
2018-Feb-13 11:31N 29°60' W 093°55'0 0.0
2018-Feb-13 11:00N 29°60' W 093°55'0 0.0
2018-Feb-13 10:30N 29°60' W 093°55'0 0.0
2018-Feb-13 10:00N 29°60' W 093°55'0 0.0
2018-Feb-13 09:30N 29°60' W 093°55'0 0.0
2018-Feb-13 09:00N 29°60' W 093°55'0 0.0
2018-Feb-13 08:30N 29°60' W 093°55'0 0.0
2018-Feb-13 08:00N 29°60' W 093°55'0 0.0
2018-Feb-13 07:30N 29°60' W 093°55'0 0.0
2018-Feb-13 07:01N 29°60' W 093°55'0 0.0
2018-Feb-13 06:31N 29°60' W 093°55'0 0.0
2018-Feb-13 06:00N 29°60' W 093°55'0 0.0
2018-Feb-13 05:31N 29°60' W 093°55'0 0.0
2018-Feb-13 05:00N 29°60' W 093°55'0 0.0
2018-Feb-13 04:31N 29°60' W 093°55'0 0.0
2018-Feb-13 04:01N 29°60' W 093°55'0 0.0
2018-Feb-13 03:31N 29°60' W 093°55'0 0.0
2018-Feb-13 03:01N 29°60' W 093°55'0 0.0
2018-Feb-13 02:31N 29°60' W 093°55'0 0.0
2018-Feb-13 02:01N 29°60' W 093°55'0 0.0
2018-Feb-13 01:30N 29°60' W 093°55'0 0.0
2018-Feb-13 01:01N 29°60' W 093°55'0 0.0
2018-Feb-13 00:31N 29°60' W 093°55'0 0.0
2018-Feb-13 00:01N 29°60' W 093°55'0 0.0
2018-Feb-12 23:30N 29°60' W 093°55'0 0.0
2018-Feb-12 23:01N 29°60' W 093°55'0 0.0
2018-Feb-12 22:31N 29°60' W 093°55'0 0.0
2018-Feb-12 22:00N 29°60' W 093°55'0 0.0
2018-Feb-12 21:31N 29°60' W 093°55'0 0.0
2018-Feb-12 21:00N 29°60' W 093°55'0 0.0
2018-Feb-12 20:30N 29°60' W 093°55'0 0.1
2018-Feb-12 20:00N 29°60' W 093°55'3 5.7
2018-Feb-12 19:30N 29°59' W 093°52'1 1.2
2018-Feb-12 19:00N 29°58' W 093°52'0 0.0
2018-Feb-12 18:31N 29°58' W 093°52'0 0.0
2018-Feb-12 18:00N 29°58' W 093°52'0 0.0
2018-Feb-12 17:27N 29°58' W 093°52'0 0.0
2018-Feb-12 17:01N 29°58' W 093°52'0 0.0
2018-Feb-12 16:30N 29°58' W 093°52'1 1.7
2018-Feb-12 16:00N 29°59' W 093°52'3 5.1
2018-Feb-12 15:31N 29°60' W 093°55'0 0.0
2018-Feb-12 15:00N 29°60' W 093°55'0 0.0
2018-Feb-12 14:31N 29°60' W 093°55'0 0.0
2018-Feb-12 14:00N 29°60' W 093°55'0 0.0
2018-Feb-12 13:30N 29°60' W 093°55'0 0.0
2018-Feb-12 13:01N 29°60' W 093°55'0 0.0
2018-Feb-12 12:30N 29°60' W 093°55'0 0.0
2018-Feb-12 12:01N 29°60' W 093°55'0 0.0
2018-Feb-12 11:30N 29°60' W 093°55'0 0.0
2018-Feb-12 11:00N 29°60' W 093°55'0 0.0
2018-Feb-12 10:30N 29°60' W 093°55'0 0.0
2018-Feb-12 10:00N 29°60' W 093°55'0 0.0
2018-Feb-12 09:30N 29°60' W 093°55'0 0.0
2018-Feb-12 09:00N 29°60' W 093°55'0 0.0
2018-Feb-12 08:31N 29°60' W 093°55'0 0.0
2018-Feb-12 08:00N 29°60' W 093°55'0 0.0
2018-Feb-12 07:30N 29°60' W 093°55'0 0.0
2018-Feb-12 07:00N 29°60' W 093°55'0 0.0
2018-Feb-12 06:30N 29°60' W 093°55'0 0.0
2018-Feb-12 06:01N 29°60' W 093°55'0 0.0
2018-Feb-12 05:30N 29°60' W 093°55'0 0.0
2018-Feb-12 05:00N 29°60' W 093°55'0 0.0
2018-Feb-12 04:30N 29°60' W 093°55'0 0.0
2018-Feb-12 04:01N 29°60' W 093°55'0 0.0
2018-Feb-12 03:30N 29°60' W 093°55'0 0.0
2018-Feb-12 03:00N 29°60' W 093°55'0 0.0
2018-Feb-12 02:30N 29°60' W 093°55'0 0.0
2018-Feb-12 02:01N 29°60' W 093°55'0 0.0
2018-Feb-12 01:30N 29°60' W 093°55'0 0.0
2018-Feb-12 01:01N 29°60' W 093°55'0 0.0
2018-Feb-12 00:30N 29°60' W 093°55'0 0.0
2018-Feb-12 00:00N 29°60' W 093°55'0 0.0
2018-Feb-11 23:30N 29°60' W 093°55'0 0.0
2018-Feb-11 23:01N 29°60' W 093°55'0 0.0
2018-Feb-11 22:31N 29°60' W 093°55'0 0.1
2018-Feb-11 22:01N 29°60' W 093°55'0 0.6
2018-Feb-11 21:30N 29°60' W 093°55'0 0.2
2018-Feb-11 21:01N 29°59' W 093°54'2 3.7
2018-Feb-11 20:26N 29°59' W 093°52'2 5.2
2018-Feb-11 20:00N 29°57' W 093°52'3 6.7
2018-Feb-11 19:31N 29°54' W 093°54'3 6.5
2018-Feb-11 19:00N 29°51' W 093°56'3 5.2
2018-Feb-11 18:30N 29°49' W 093°58'2 4.2
2018-Feb-11 18:00N 29°48' W 094°00'2 4.6
2018-Feb-11 17:30N 29°46' W 094°02'2 4.6
2018-Feb-11 17:01N 29°45' W 094°04'2 4.7
2018-Feb-11 16:30N 29°44' W 094°06'2 4.7
2018-Feb-11 16:00N 29°42' W 094°09'2 4.1
2018-Feb-11 15:30N 29°41' W 094°11'2 4.2
2018-Feb-11 15:00N 29°40' W 094°13'2 3.2
2018-Feb-11 14:28N 29°40' W 094°15'1 1.1
2018-Feb-11 13:59N 29°39' W 094°15'0 0.0
2018-Feb-11 13:25N 29°39' W 094°15'0 0.0
2018-Feb-11 13:00N 29°39' W 094°15'0 0.0
2018-Feb-11 12:30N 29°39' W 094°15'0 0.0
2018-Feb-11 12:00N 29°39' W 094°15'0 0.0
2018-Feb-11 11:30N 29°39' W 094°15'0 0.0
2018-Feb-11 11:00N 29°39' W 094°15'0 0.0
2018-Feb-11 10:30N 29°39' W 094°15'0 0.0
2018-Feb-11 10:00N 29°39' W 094°15'0 0.0
2018-Feb-11 09:30N 29°39' W 094°15'0 0.0
2018-Feb-11 09:00N 29°39' W 094°15'0 0.0
2018-Feb-11 08:30N 29°39' W 094°15'1 1.6
2018-Feb-11 08:00N 29°39' W 094°16'3 2.2
2018-Feb-11 06:46N 29°38' W 094°19'0 0.0
2018-Feb-11 06:26N 29°38' W 094°19'0 0.0
2018-Feb-11 06:00N 29°38' W 094°19'10 2.5
2018-Feb-11 01:56N 29°32' W 094°29'  

Dump ship's entire track history